createdAt,value
2019-05-20T00:03:32.829Z,16.04
2019-05-20T00:08:38.074Z,16.14
2019-05-20T00:13:43.378Z,15.87
2019-05-20T00:18:48.606Z,15.68
2019-05-20T00:23:54.279Z,15.50
2019-05-20T00:28:59.621Z,15.48
2019-05-20T00:34:04.952Z,15.68
2019-05-20T00:39:22.231Z,15.66
2019-05-20T00:44:27.498Z,15.80
2019-05-20T00:49:32.738Z,16.07
2019-05-20T00:54:38.403Z,15.96
2019-05-20T00:59:43.666Z,16.03
2019-05-20T01:04:48.951Z,15.64
2019-05-20T01:09:54.671Z,15.61
2019-05-20T01:15:00.196Z,15.68
2019-05-20T01:20:06.521Z,15.91
2019-05-20T01:25:11.897Z,16.03
2019-05-20T01:30:18.772Z,15.67
2019-05-20T01:35:25.102Z,15.44
2019-05-20T01:40:30.294Z,15.43
2019-05-20T01:45:35.559Z,15.75
2019-05-20T01:50:40.820Z,15.70
2019-05-20T01:55:46.110Z,15.34
2019-05-20T02:00:51.314Z,15.21
2019-05-20T02:05:56.581Z,15.43
2019-05-20T02:11:02.055Z,15.55
2019-05-20T02:16:08.103Z,15.39
2019-05-20T02:21:13.430Z,15.57
2019-05-20T02:26:18.934Z,15.70
2019-05-20T02:31:24.131Z,15.28
2019-05-20T02:36:29.406Z,15.00
2019-05-20T02:41:35.240Z,14.98
2019-05-20T02:46:40.415Z,14.77
2019-05-20T02:51:45.808Z,14.84
2019-05-20T02:56:51.143Z,14.85
2019-05-20T03:01:56.447Z,14.80
2019-05-20T03:07:02.722Z,14.92
2019-05-20T03:12:08.041Z,14.70
2019-05-20T03:17:13.359Z,14.51
2019-05-20T03:22:18.594Z,14.52
2019-05-20T03:27:24.081Z,14.46
2019-05-20T03:32:29.293Z,14.48
2019-05-20T03:37:34.622Z,14.33
2019-05-20T03:42:40.063Z,14.35
2019-05-20T03:47:45.272Z,14.22
2019-05-20T03:52:50.589Z,14.38
2019-05-20T03:57:55.995Z,14.70
2019-05-20T04:03:01.287Z,14.43
2019-05-20T04:08:06.532Z,14.56
2019-05-20T04:13:11.840Z,14.77
2019-05-20T04:18:17.110Z,14.65
2019-05-20T04:23:22.496Z,14.67
2019-05-20T04:28:28.004Z,14.85
2019-05-20T04:33:33.247Z,14.91
2019-05-20T04:38:38.678Z,15.03
2019-05-20T04:43:44.025Z,15.20
2019-05-20T04:48:49.388Z,15.47
2019-05-20T04:53:54.595Z,15.73
2019-05-20T04:59:00.143Z,15.76
2019-05-20T05:04:05.684Z,15.56
2019-05-20T05:09:11.071Z,15.59
2019-05-20T05:14:16.699Z,15.81
2019-05-20T05:19:22.013Z,16.03
2019-05-20T05:24:28.834Z,16.28
2019-05-20T05:29:34.719Z,16.15
2019-05-20T05:34:40.533Z,16.06
2019-05-20T05:39:58.575Z,15.98
2019-05-20T05:45:04.220Z,16.20
2019-05-20T05:50:11.383Z,16.83
2019-05-20T05:55:20.035Z,18.77
2019-05-20T06:00:26.244Z,21.32
2019-05-20T06:05:32.147Z,20.51
2019-05-20T06:10:40.343Z,18.21
2019-05-20T06:15:46.891Z,17.86
2019-05-20T06:20:52.346Z,18.06
2019-05-20T06:25:57.595Z,18.32
2019-05-20T06:31:03.363Z,18.23
2019-05-20T06:36:09.893Z,18.41
2019-05-20T06:41:15.411Z,18.54
2019-05-20T06:46:21.074Z,18.50
2019-05-20T06:51:30.869Z,18.91
2019-05-20T06:56:36.187Z,19.26
2019-05-20T07:01:42.431Z,19.73
2019-05-20T07:06:48.719Z,20.09
2019-05-20T07:11:54.136Z,19.80
2019-05-20T07:17:06.109Z,20.58
2019-05-20T07:22:12.424Z,20.88
2019-05-20T07:27:18.082Z,20.80
2019-05-20T07:32:24.417Z,20.30
2019-05-20T07:37:30.563Z,20.27
2019-05-20T07:42:41.625Z,20.18
2019-05-20T07:47:47.113Z,20.54
2019-05-20T07:52:53.606Z,20.53
2019-05-20T07:58:02.594Z,20.36
2019-05-20T08:03:08.053Z,20.69
2019-05-20T08:08:14.054Z,20.25
2019-05-20T08:13:21.681Z,20.09
2019-05-20T08:18:27.129Z,19.92
2019-05-20T08:23:32.403Z,19.90
2019-05-20T08:28:37.861Z,20.04
2019-05-20T08:33:45.520Z,20.07
2019-05-20T08:38:50.787Z,20.01
2019-05-20T08:43:59.143Z,19.89
2019-05-20T08:49:04.490Z,20.01
2019-05-20T08:54:10.102Z,19.89
2019-05-20T08:59:15.502Z,20.20
2019-05-20T09:04:20.889Z,19.93
2019-05-20T09:09:27.704Z,19.79
2019-05-20T09:14:34.474Z,19.71
2019-05-20T09:19:39.870Z,19.59
2019-05-20T09:24:46.857Z,19.57
2019-05-20T09:29:52.392Z,19.49
2019-05-20T09:34:59.052Z,19.41
2019-05-20T09:40:07.280Z,19.54
2019-05-20T09:45:15.177Z,19.30
2019-05-20T09:50:22.705Z,19.21
2019-05-20T09:55:29.228Z,19.17
2019-05-20T10:00:34.765Z,19.04
2019-05-20T10:05:40.922Z,19.02
2019-05-20T10:10:46.243Z,19.20
2019-05-20T10:15:53.291Z,19.15
2019-05-20T10:20:58.577Z,19.05
2019-05-20T10:26:04.018Z,19.15
2019-05-20T10:31:14.553Z,19.36
2019-05-20T10:36:20.718Z,19.47
2019-05-20T10:41:29.535Z,19.47
2019-05-20T10:46:34.105Z,19.65
2019-05-20T10:51:39.360Z,19.24
2019-05-20T10:56:44.632Z,19.18
2019-05-20T11:01:50.177Z,19.10
2019-05-20T11:06:57.365Z,18.92
2019-05-20T11:12:03.772Z,18.88
2019-05-20T11:17:09.277Z,18.76
2019-05-20T11:22:17.684Z,18.76
2019-05-20T11:27:23.087Z,18.83
2019-05-20T11:32:30.247Z,18.66
2019-05-20T11:37:36.477Z,18.76
2019-05-20T11:42:41.703Z,18.89
2019-05-20T11:47:46.995Z,18.99
2019-05-20T11:52:54.726Z,19.28
2019-05-20T11:58:15.093Z,19.33
2019-05-20T12:03:11.117Z,19.05
2019-05-20T12:08:18.152Z,19.18
2019-05-20T12:13:25.852Z,19.10
2019-05-20T12:18:33.536Z,19.06
2019-05-20T12:23:39.566Z,19.18
2019-05-20T12:28:45.485Z,19.09
2019-05-20T12:33:51.285Z,19.13
2019-05-20T12:39:02.351Z,19.18
2019-05-20T12:44:29.997Z,19.08
2019-05-20T12:49:38.566Z,19.26
2019-05-20T12:55:04.151Z,19.07
2019-05-20T12:59:59.750Z,18.95
2019-05-20T13:05:07.621Z,19.06
2019-05-20T13:10:29.306Z,18.86
2019-05-20T13:15:23.576Z,18.78
2019-05-20T13:20:29.058Z,18.60
2019-05-20T13:25:35.746Z,18.45
2019-05-20T13:30:44.140Z,18.65
2019-05-20T13:35:51.349Z,19.01
2019-05-20T13:40:58.683Z,18.49
2019-05-20T13:46:06.534Z,18.38
2019-05-20T13:51:12.728Z,18.35
2019-05-20T13:56:19.105Z,18.04
2019-05-20T14:01:25.347Z,18.05
2019-05-20T14:06:31.289Z,17.97
2019-05-20T14:11:37.030Z,18.25
2019-05-20T14:16:44.090Z,18.25
2019-05-20T14:21:49.711Z,18.17
2019-05-20T14:26:56.034Z,16.76
2019-05-20T14:32:01.507Z,16.10
2019-05-20T14:37:06.939Z,16.18
2019-05-20T14:42:14.479Z,16.30
2019-05-20T14:47:20.159Z,16.04
2019-05-20T14:52:26.185Z,15.95
2019-05-20T14:57:35.812Z,16.02
2019-05-20T15:02:42.598Z,16.47
2019-05-20T15:07:49.363Z,16.55
2019-05-20T15:12:55.008Z,16.27
2019-05-20T15:18:02.990Z,16.25
2019-05-20T15:23:08.407Z,16.43
2019-05-20T15:28:14.040Z,16.11
2019-05-20T15:33:19.897Z,16.19
2019-05-20T15:38:28.840Z,16.06
2019-05-20T15:43:34.714Z,16.59
2019-05-20T15:48:40.138Z,16.44
2019-05-20T15:53:45.481Z,16.23
2019-05-20T15:58:50.901Z,16.45
2019-05-20T16:03:57.454Z,16.48
2019-05-20T16:09:05.530Z,16.32
2019-05-20T16:14:11.937Z,16.68
2019-05-20T16:19:17.348Z,16.37
2019-05-20T16:24:23.297Z,16.69
2019-05-20T16:29:28.827Z,16.66
2019-05-20T16:34:34.930Z,16.59
2019-05-20T16:39:40.275Z,16.70
2019-05-20T16:44:47.937Z,17.27
2019-05-20T16:49:54.228Z,17.18
2019-05-20T16:54:59.838Z,17.49
2019-05-20T17:00:20.963Z,17.23
2019-05-20T17:05:17.130Z,17.32
2019-05-20T17:10:22.852Z,17.57
2019-05-20T17:15:29.049Z,17.84
2019-05-20T17:20:37.818Z,17.77
2019-05-20T17:25:45.605Z,17.78
2019-05-20T17:30:51.538Z,17.74
2019-05-20T17:35:57.395Z,17.00
2019-05-20T17:41:08.803Z,16.86
2019-05-20T17:46:14.884Z,16.94
2019-05-20T17:51:22.866Z,16.96
2019-05-20T17:56:28.598Z,16.73
2019-05-20T18:01:33.866Z,16.82
2019-05-20T18:06:41.957Z,16.79
2019-05-20T18:11:49.369Z,16.88
2019-05-20T18:16:55.967Z,16.89
2019-05-20T18:22:04.629Z,16.55
2019-05-20T18:27:10.213Z,16.05
2019-05-20T18:32:18.797Z,15.86
2019-05-20T18:37:26.609Z,15.68
2019-05-20T18:42:31.999Z,15.58
2019-05-20T18:47:38.244Z,15.43
2019-05-20T18:52:43.763Z,15.56
2019-05-20T18:57:51.706Z,15.48
2019-05-20T19:02:59.326Z,15.41
2019-05-20T19:08:05.372Z,15.16
2019-05-20T19:13:12.760Z,15.13
2019-05-20T19:18:18.214Z,15.21
2019-05-20T19:23:24.202Z,15.27
2019-05-20T19:28:31.657Z,15.21
2019-05-20T19:33:38.668Z,15.34
2019-05-20T19:38:44.819Z,15.29
2019-05-20T19:43:52.130Z,15.38
2019-05-20T19:48:58.054Z,15.13
2019-05-20T19:54:05.527Z,15.03
2019-05-20T19:59:11.778Z,14.80
2019-05-20T20:04:18.529Z,14.85
2019-05-20T20:09:27.280Z,14.69
2019-05-20T20:14:34.642Z,14.54
2019-05-20T20:19:40.110Z,14.28
2019-05-20T20:24:47.188Z,14.34
2019-05-20T20:29:52.710Z,13.95
2019-05-20T20:34:58.383Z,13.92
2019-05-20T20:40:04.034Z,14.25
2019-05-20T20:45:09.492Z,14.19
2019-05-20T20:50:17.766Z,14.24
2019-05-20T20:55:24.210Z,14.15
2019-05-20T21:00:29.700Z,14.00
2019-05-20T21:05:35.226Z,13.68
2019-05-20T21:10:40.646Z,13.46
2019-05-20T21:15:46.175Z,13.54
2019-05-20T21:20:53.299Z,13.62
2019-05-20T21:25:58.756Z,13.68
2019-05-20T21:31:04.169Z,13.66
2019-05-20T21:36:09.813Z,13.62
2019-05-20T21:41:15.322Z,13.47
2019-05-20T21:46:21.871Z,13.50
2019-05-20T21:51:27.797Z,13.62
2019-05-20T21:56:33.244Z,13.81
2019-05-20T22:01:41.309Z,13.95
2019-05-20T22:06:46.767Z,13.84
2019-05-20T22:11:52.369Z,13.80
2019-05-20T22:17:00.006Z,13.50
2019-05-20T22:22:30.653Z,13.42
2019-05-20T22:27:37.380Z,13.31
2019-05-20T22:32:43.913Z,13.27
2019-05-20T22:37:50.488Z,13.21
2019-05-20T22:42:55.905Z,13.17
2019-05-20T22:48:01.300Z,13.39
2019-05-20T22:53:06.904Z,13.31
2019-05-20T22:58:12.208Z,13.08
2019-05-20T23:03:17.575Z,13.12
2019-05-20T23:08:23.240Z,13.24
2019-05-20T23:13:28.688Z,13.32
2019-05-20T23:18:34.144Z,13.17
2019-05-20T23:23:39.553Z,13.28
2019-05-20T23:28:45.389Z,12.93
2019-05-20T23:33:50.662Z,12.74
2019-05-20T23:38:56.246Z,13.17
2019-05-20T23:44:02.096Z,13.33
2019-05-20T23:49:07.615Z,13.07
2019-05-20T23:54:17.111Z,13.12
2019-05-20T23:59:23.167Z,13.30
